Time;durP1;ratioP1;P1;durP2;ratioP2;P2;SDS_P1;SDS_P2;PMS_P1;PMS_P2;Temp;Humidity;BMP_temperature;BMP_pressure;BME280_temperature;BME280_humidity;BME280_pressure;Samples;Min_cycle;Max_cycle;Signal;HPM_P1;HPM_P2
2023/12/25 00:00:04;;;;;;;17.50;9.90;;;;;;;8.22;74.60;98369.31;5085006;27;20039;-71
2023/12/25 00:02:33;;;;;;;19.88;9.85;;;;;;;8.16;74.98;98369.88;5077189;28;20023;-70
2023/12/25 00:05:01;;;;;;;19.27;11.18;;;;;;;8.15;74.98;98368.22;5068409;28;20027;-71
2023/12/25 00:07:28;;;;;;;16.83;9.82;;;;;;;7.96;74.88;98322.44;5070536;28;20106;-71
2023/12/25 00:09:56;;;;;;;16.20;9.60;;;;;;;8.19;75.21;98369.59;5072484;28;20605;-71
2023/12/25 00:12:24;;;;;;;18.08;9.43;;;;;;;8.28;75.31;98371.34;5066346;28;20023;-71
2023/12/25 00:14:51;;;;;;;15.57;9.77;;;;;;;8.27;74.70;98385.28;5081497;28;20092;-71
2023/12/25 00:17:19;;;;;;;17.02;9.40;;;;;;;8.31;74.24;98379.84;5076346;28;20089;-70
2023/12/25 00:19:45;;;;;;;19.33;10.40;;;;;;;8.19;74.48;98377.34;5065283;28;20458;-71
2023/12/25 00:22:12;;;;;;;18.08;9.65;;;;;;;8.20;74.50;98378.19;5079299;28;20047;-70
2023/12/25 00:24:38;;;;;;;16.92;8.98;;;;;;;8.21;74.18;98374.63;5081948;28;20047;-71
2023/12/25 00:27:06;;;;;;;17.55;9.80;;;;;;;8.03;75.93;98362.38;5067254;28;20035;-72
2023/12/25 00:29:31;;;;;;;18.60;9.30;;;;;;;8.12;75.85;98376.25;5098301;28;20027;-70
2023/12/25 00:31:56;;;;;;;17.50;9.25;;;;;;;8.00;77.12;98379.94;5072176;28;20031;-71
2023/12/25 00:34:22;;;;;;;19.48;9.43;;;;;;;8.03;77.35;98382.22;5094669;28;20035;-71
2023/12/25 00:36:52;;;;;;;16.33;8.85;;;;;;;8.10;77.30;98383.34;5075725;28;20066;-72
2023/12/25 00:39:18;;;;;;;16.00;8.80;;;;;;;8.15;76.73;98385.53;5072041;28;20028;-71
2023/12/25 00:41:50;;;;;;;15.68;8.43;;;;;;;8.23;76.78;98390.84;5094153;28;20023;-71
2023/12/25 00:44:18;;;;;;;13.30;8.45;;;;;;;7.93;77.29;98340.00;5085477;28;20150;-72
2023/12/25 00:46:46;;;;;;;17.77;8.93;;;;;;;8.29;76.63;98390.31;5075069;28;20035;-71
2023/12/25 00:49:12;;;;;;;17.20;9.15;;;;;;;8.25;77.01;98392.38;5070921;28;20027;-70
2023/12/25 00:51:37;;;;;;;20.95;8.50;;;;;;;8.27;76.88;98395.63;5092209;28;20750;-70
2023/12/25 00:54:03;;;;;;;13.95;8.57;;;;;;;8.34;76.90;98395.09;5087362;28;20073;-71
2023/12/25 00:56:28;;;;;;;18.00;8.65;;;;;;;8.26;76.32;98386.22;5094789;28;20085;-71
2023/12/25 00:58:54;;;;;;;16.05;8.32;;;;;;;8.16;77.14;98387.16;5089577;28;20049;-71
2023/12/25 01:01:19;;;;;;;14.00;8.30;;;;;;;8.01;77.69;98389.31;5070782;28;20669;-71
2023/12/25 01:03:49;;;;;;;15.75;8.70;;;;;;;8.05;77.69;98383.75;5078189;28;20122;-70
2023/12/25 01:06:14;;;;;;;15.35;8.45;;;;;;;7.94;78.36;98388.22;5069603;28;20495;-70
2023/12/25 01:08:42;;;;;;;14.85;8.70;;;;;;;7.71;78.29;98344.44;5090571;28;20031;-71
2023/12/25 01:11:07;;;;;;;16.73;8.35;;;;;;;7.91;78.84;98394.50;5086655;28;20035;-72
2023/12/25 01:13:33;;;;;;;17.10;8.02;;;;;;;7.83;79.48;98382.22;5072699;28;20691;-71
2023/12/25 01:15:58;;;;;;;16.27;8.27;;;;;;;7.89;79.70;98388.63;5088257;28;20166;-71
2023/12/25 01:18:26;;;;;;;13.48;8.20;;;;;;;7.85;79.13;98382.09;5093747;28;20028;-72
2023/12/25 01:20:51;;;;;;;17.00;8.38;;;;;;;7.85;79.21;98388.09;5071725;28;20352;-71
2023/12/25 01:23:17;;;;;;;14.48;8.18;;;;;;;7.86;78.73;98387.09;5068256;28;20059;-71
2023/12/25 01:25:44;;;;;;;16.13;8.38;;;;;;;7.80;79.12;98390.25;5092484;28;20122;-71
2023/12/25 01:28:10;;;;;;;13.60;8.60;;;;;;;7.60;79.41;98350.56;5084499;28;20054;-71
2023/12/25 01:30:35;;;;;;;17.40;8.30;;;;;;;7.63;79.39;98386.53;5065113;28;20475;-71
2023/12/25 01:33:00;;;;;;;15.75;8.18;;;;;;;7.41;80.31;98356.50;5069019;28;20030;-72
2023/12/25 01:35:26;;;;;;;16.95;8.77;;;;;;;7.57;80.08;98392.22;5084782;28;20502;-71
2023/12/25 01:37:51;;;;;;;16.20;8.07;;;;;;;7.38;81.14;98398.13;5089490;28;20118;-71
2023/12/25 01:40:19;;;;;;;17.73;8.13;;;;;;;7.41;81.85;98397.88;5071954;28;20023;-70
2023/12/25 01:42:44;;;;;;;17.80;8.32;;;;;;;7.56;81.14;98400.13;5077897;28;20039;-70
2023/12/25 01:45:12;;;;;;;15.60;8.27;;;;;;;7.58;81.17;98404.22;5090448;28;20032;-71
2023/12/25 01:47:40;;;;;;;12.93;7.75;;;;;;;7.59;80.68;98402.44;5095025;28;20028;-71
2023/12/25 01:50:06;;;;;;;17.40;7.78;;;;;;;7.70;80.96;98395.41;5091951;28;20108;-71
2023/12/25 01:52:34;;;;;;;13.32;7.60;;;;;;;7.75;79.96;98404.53;5098467;28;20036;-70
2023/12/25 01:55:01;;;;;;;15.25;7.75;;;;;;;7.80;79.72;98408.34;5091585;27;20027;-71
2023/12/25 01:57:32;;;;;;;14.80;7.78;;;;;;;7.74;80.05;98414.06;5085676;28;20408;-70
2023/12/25 01:59:57;;;;;;;16.80;7.55;;;;;;;7.53;79.74;98375.31;5080215;28;20026;-70
2023/12/25 02:02:25;;;;;;;15.80;7.65;;;;;;;7.55;79.94;98370.00;5073986;28;20024;-70
2023/12/25 02:04:51;;;;;;;13.45;6.88;;;;;;;7.45;81.37;98408.78;5098065;28;20084;-71
2023/12/25 02:07:16;;;;;;;14.77;7.80;;;;;;;7.42;82.08;98415.03;5071966;28;20336;-71
2023/12/25 02:09:48;;;;;;;13.68;7.65;;;;;;;7.50;81.04;98422.13;5073224;28;20028;-71
2023/12/25 02:12:16;;;;;;;14.50;8.10;;;;;;;7.41;81.69;98416.00;5085924;28;20024;-71
2023/12/25 02:14:42;;;;;;;13.88;7.55;;;;;;;7.39;81.95;98417.88;5096809;28;20031;-71
2023/12/25 02:17:08;;;;;;;12.85;6.90;;;;;;;7.21;82.24;98403.88;5076994;28;20043;-71
2023/12/25 02:19:43;;;;;;;14.65;7.13;;;;;;;7.39;82.95;98420.47;5093455;28;20027;-70
2023/12/25 02:22:09;;;;;;;16.17;7.70;;;;;;;7.39;82.87;98415.31;5094451;28;20054;-70
2023/12/25 02:25:10;;;;;;;13.32;7.20;;;;;;;7.17;83.00;98421.44;5086019;28;20036;-71
2023/12/25 02:27:35;;;;;;;13.13;7.20;;;;;;;6.85;83.43;98372.41;5074813;28;20644;-71
2023/12/25 02:30:01;;;;;;;12.55;7.43;;;;;;;7.27;83.07;98413.75;5087710;28;20893;-71
2023/12/25 02:32:31;;;;;;;13.88;7.25;;;;;;;7.32;82.73;98422.75;5076689;28;21167;-71
2023/12/25 02:34:57;;;;;;;14.40;7.13;;;;;;;7.17;83.20;98410.28;5072335;28;20067;-71
2023/12/25 02:37:24;;;;;;;14.25;7.50;;;;;;;7.11;83.03;98378.00;5073826;28;20490;-70
2023/12/25 02:39:52;;;;;;;12.10;6.93;;;;;;;7.36;82.35;98414.75;5092512;28;20138;-72
2023/12/25 02:42:17;;;;;;;17.38;7.85;;;;;;;7.12;82.46;98377.88;5088238;28;20020;-71
2023/12/25 02:44:43;;;;;;;11.77;7.65;;;;;;;7.31;82.56;98410.75;5075316;28;20031;-72
2023/12/25 02:47:10;;;;;;;15.00;6.90;;;;;;;7.32;83.04;98412.41;5092379;28;20608;-71
2023/12/25 02:49:36;;;;;;;15.98;8.20;;;;;;;7.11;83.29;98414.19;5091531;28;20035;-71
2023/12/25 02:52:03;;;;;;;15.15;7.50;;;;;;;7.12;82.89;98414.06;5093221;28;20081;-71
2023/12/25 02:54:29;;;;;;;13.85;7.90;;;;;;;6.82;83.25;98403.66;5088618;28;20027;-72
2023/12/25 02:56:54;;;;;;;12.73;7.15;;;;;;;6.74;83.74;98365.53;5088217;28;20039;-71
2023/12/25 02:59:20;;;;;;;14.73;7.38;;;;;;;6.84;83.57;98361.22;5090008;28;20038;-70
2023/12/25 03:01:45;;;;;;;15.10;7.78;;;;;;;7.02;83.37;98420.94;5077578;28;20038;-71
2023/12/25 03:04:10;;;;;;;12.35;7.20;;;;;;;7.04;83.83;98413.88;5073657;28;20119;-70
2023/12/25 03:06:36;;;;;;;15.07;7.85;;;;;;;6.85;84.05;98408.59;5090099;28;20115;-71
2023/12/25 03:09:03;;;;;;;14.25;7.07;;;;;;;6.91;83.78;98403.72;5090231;28;20036;-71
2023/12/25 03:11:31;;;;;;;12.77;6.90;;;;;;;6.95;84.43;98403.47;5091720;28;20108;-71
2023/12/25 03:13:59;;;;;;;11.70;7.35;;;;;;;6.89;84.63;98399.63;5069920;28;20581;-71
2023/12/25 03:16:26;;;;;;;14.93;7.43;;;;;;;7.04;83.92;98407.88;5095592;28;20031;-72
2023/12/25 03:18:54;;;;;;;15.02;7.72;;;;;;;6.89;83.16;98371.22;5070363;28;20453;-71
2023/12/25 03:21:21;;;;;;;14.52;7.70;;;;;;;7.09;83.21;98409.16;5093680;27;20034;-71
2023/12/25 03:23:46;;;;;;;13.80;7.07;;;;;;;7.11;83.18;98402.06;5091844;28;20054;-71
2023/12/25 03:26:12;;;;;;;14.00;7.53;;;;;;;7.09;82.82;98392.81;5094545;27;20032;-71
2023/12/25 03:28:37;;;;;;;16.20;7.47;;;;;;;7.09;82.77;98408.34;5094899;27;20055;-71
2023/12/25 03:31:03;;;;;;;10.75;6.70;;;;;;;7.05;82.99;98407.78;5070577;28;20027;-70
2023/12/25 03:33:28;;;;;;;13.68;6.68;;;;;;;6.97;82.45;98407.56;5089022;28;20024;-71
2023/12/25 03:35:54;;;;;;;15.00;6.95;;;;;;;6.82;84.01;98401.91;5086921;28;20027;-71
2023/12/25 03:38:21;;;;;;;11.80;6.85;;;;;;;6.82;84.29;98408.84;5075500;28;20067;-71
2023/12/25 03:40:50;;;;;;;14.05;7.78;;;;;;;6.54;85.48;98368.00;5082537;28;20020;-71
2023/12/25 03:43:18;;;;;;;13.65;7.63;;;;;;;6.72;85.76;98406.19;5086342;28;20556;-71
2023/12/25 03:45:45;;;;;;;12.70;6.93;;;;;;;6.83;85.44;98402.75;5071061;28;20044;-71
2023/12/25 03:48:13;;;;;;;12.77;7.15;;;;;;;6.94;85.19;98397.50;5092090;28;20518;-71
2023/12/25 03:50:39;;;;;;;13.75;7.28;;;;;;;7.01;85.24;98385.72;5075063;28;20481;-71
2023/12/25 03:53:04;;;;;;;13.90;7.53;;;;;;;6.91;84.92;98397.75;5070613;28;20034;-71
2023/12/25 03:55:29;;;;;;;16.63;7.60;;;;;;;6.91;84.76;98385.63;5085969;28;20111;-71
2023/12/25 03:57:55;;;;;;;13.68;7.18;;;;;;;7.05;83.61;98400.00;5091614;28;20167;-71
2023/12/25 04:00:23;;;;;;;14.90;7.30;;;;;;;6.86;83.52;98387.81;5092683;28;20031;-70
2023/12/25 04:02:48;;;;;;;12.35;7.60;;;;;;;6.74;84.23;98393.97;5068317;28;20040;-71
2023/12/25 04:05:13;;;;;;;14.13;6.63;;;;;;;6.75;84.12;98390.44;5073496;28;20562;-71
2023/12/25 04:07:41;;;;;;;13.52;7.22;;;;;;;6.89;84.08;98397.06;5081927;28;20490;-71
2023/12/25 04:10:09;;;;;;;14.68;6.75;;;;;;;6.77;84.72;98385.13;5094637;28;20053;-70
2023/12/25 04:12:35;;;;;;;13.38;7.03;;;;;;;6.71;84.09;98389.84;5070920;28;20035;-71
2023/12/25 04:15:03;;;;;;;12.30;6.90;;;;;;;6.73;84.34;98387.16;5088191;27;20478;-70
2023/12/25 04:17:30;;;;;;;13.05;7.00;;;;;;;6.68;84.17;98400.47;5073206;28;20039;-71
2023/12/25 04:19:56;;;;;;;12.85;6.72;;;;;;;6.74;84.49;98402.53;5075912;28;20052;-71
2023/12/25 04:22:23;;;;;;;11.88;6.50;;;;;;;6.65;84.30;98377.44;5078541;28;20226;-70
2023/12/25 04:24:49;;;;;;;12.55;6.45;;;;;;;6.67;84.20;98375.56;5072050;28;20035;-70
2023/12/25 04:27:18;;;;;;;14.55;6.32;;;;;;;6.65;83.46;98387.78;5091485;28;20081;-70
2023/12/25 04:29:47;;;;;;;12.68;6.15;;;;;;;6.59;83.91;98370.22;5090578;28;20047;-71
2023/12/25 04:32:12;;;;;;;13.65;6.35;;;;;;;6.68;84.14;98366.88;5094399;28;20035;-71
2023/12/25 04:34:40;;;;;;;10.75;6.20;;;;;;;6.51;84.71;98370.00;5071503;28;20024;-71
2023/12/25 04:37:08;;;;;;;11.50;6.32;;;;;;;6.57;84.29;98391.94;5073831;28;20676;-70
2023/12/25 04:39:36;;;;;;;11.30;6.78;;;;;;;6.54;84.35;98387.84;5091599;28;20565;-70
2023/12/25 04:42:02;;;;;;;13.70;6.35;;;;;;;6.29;84.64;98358.81;5088976;28;20032;-71
2023/12/25 04:44:32;;;;;;;10.77;6.07;;;;;;;6.55;83.87;98394.63;5091196;28;20487;-71
2023/12/25 04:46:57;;;;;;;12.13;6.35;;;;;;;6.66;84.15;98402.34;5084998;28;20032;-71
2023/12/25 04:49:25;;;;;;;11.70;6.13;;;;;;;6.40;83.33;98350.19;5091712;28;20391;-70
2023/12/25 04:51:50;;;;;;;12.93;6.30;;;;;;;6.59;83.27;98405.53;5066566;28;21076;-69
2023/12/25 04:54:16;;;;;;;11.90;6.45;;;;;;;6.64;83.51;98406.00;5087950;28;20035;-70
2023/12/25 04:56:44;;;;;;;11.38;5.82;;;;;;;6.24;84.98;98399.69;5085018;28;20043;-70
2023/12/25 04:59:11;;;;;;;11.95;6.20;;;;;;;6.39;84.65;98417.47;5084546;28;20543;-71
2023/12/25 05:01:37;;;;;;;10.50;6.13;;;;;;;6.45;84.18;98410.06;5087741;28;20031;-71
2023/12/25 05:04:05;;;;;;;14.02;6.10;;;;;;;6.51;84.60;98411.31;5083110;28;20039;-71
2023/12/25 05:06:30;;;;;;;13.90;6.38;;;;;;;5.92;84.40;98379.78;5089698;28;20038;-71
2023/12/25 05:08:56;;;;;;;12.73;6.53;;;;;;;5.58;86.47;98379.03;5094743;28;20039;-71
2023/12/25 05:11:23;;;;;;;13.73;6.22;;;;;;;5.44;89.09;98398.16;5087301;28;20161;-70
2023/12/25 05:13:49;;;;;;;15.15;5.97;;;;;;;5.44;89.45;98374.94;5086801;28;20032;-71
2023/12/25 05:16:14;;;;;;;10.57;5.78;;;;;;;5.92;89.56;98399.63;5090603;28;20028;-70
2023/12/25 05:18:45;;;;;;;9.32;5.88;;;;;;;6.11;89.18;98401.59;5091961;28;20593;-69
2023/12/25 05:21:10;;;;;;;13.45;6.32;;;;;;;6.31;88.29;98415.50;5073644;28;20371;-69
2023/12/25 05:23:35;;;;;;;12.70;5.93;;;;;;;6.31;88.27;98416.31;5068652;28;20404;-70
2023/12/25 05:26:01;;;;;;;12.68;6.57;;;;;;;6.08;89.05;98415.59;5081020;28;20024;-70
2023/12/25 05:28:26;;;;;;;13.68;5.78;;;;;;;6.13;89.77;98420.38;5090031;28;20111;-70
2023/12/25 05:30:52;;;;;;;14.43;6.18;;;;;;;6.24;90.05;98407.44;5086705;28;20035;-70
2023/12/25 05:33:17;;;;;;;12.43;6.28;;;;;;;6.39;90.04;98414.88;5065137;28;20794;-70
2023/12/25 05:35:43;;;;;;;12.60;5.78;;;;;;;6.44;89.27;98425.69;5087853;28;20602;-71
2023/12/25 05:38:10;;;;;;;11.75;5.97;;;;;;;6.25;89.25;98411.66;5088221;28;20024;-71
2023/12/25 05:40:36;;;;;;;12.68;6.50;;;;;;;6.39;88.16;98420.06;5073418;28;20164;-70
2023/12/25 05:43:01;;;;;;;12.02;5.78;;;;;;;6.45;88.18;98422.97;5075753;28;20039;-70
2023/12/25 05:45:27;;;;;;;10.95;6.07;;;;;;;6.42;87.35;98430.97;5062454;28;20481;-71
2023/12/25 05:47:54;;;;;;;10.15;6.00;;;;;;;6.33;88.20;98419.63;5086814;28;20027;-70
2023/12/25 05:50:20;;;;;;;11.52;6.20;;;;;;;6.40;87.80;98422.53;5080254;28;20031;-70
2023/12/25 05:52:46;;;;;;;11.35;5.60;;;;;;;6.42;87.26;98425.78;5086018;28;20035;-70
2023/12/25 05:55:11;;;;;;;9.43;5.88;;;;;;;6.37;87.01;98427.94;5066656;28;20032;-70
2023/12/25 05:57:36;;;;;;;12.48;6.40;;;;;;;6.25;88.27;98434.91;5077858;28;20110;-69
2023/12/25 06:00:02;;;;;;;11.63;6.30;;;;;;;6.30;87.78;98427.59;5067649;28;20526;-70
2023/12/25 06:02:28;;;;;;;10.90;6.13;;;;;;;6.06;87.41;98407.16;5087755;28;20101;-70
2023/12/25 06:04:56;;;;;;;12.13;5.95;;;;;;;6.15;87.63;98444.28;5073086;28;20671;-71
2023/12/25 06:07:24;;;;;;;14.23;6.30;;;;;;;5.85;88.47;98437.19;5081426;28;20042;-70
2023/12/25 06:09:51;;;;;;;10.98;5.88;;;;;;;5.72;88.35;98396.03;5071346;28;20028;-70
2023/12/25 06:12:17;;;;;;;12.38;5.88;;;;;;;5.92;88.44;98412.53;5069656;28;20050;-70
2023/12/25 06:14:44;;;;;;;12.73;5.78;;;;;;;5.74;88.15;98402.69;5070585;28;20549;-70
2023/12/25 06:17:10;;;;;;;10.60;5.85;;;;;;;6.14;87.47;98448.66;5066511;28;20043;-70
2023/12/25 06:19:35;;;;;;;13.77;5.80;;;;;;;6.19;87.05;98447.47;5072706;28;20157;-70
2023/12/25 06:22:01;;;;;;;11.35;5.57;;;;;;;6.18;86.99;98451.00;5086059;28;20429;-71
2023/12/25 06:24:26;;;;;;;11.35;5.18;;;;;;;6.20;86.35;98456.84;5067342;28;20380;-70
2023/12/25 06:26:54;;;;;;;11.43;5.72;;;;;;;6.08;86.58;98461.22;5071252;28;20036;-70
2023/12/25 06:29:19;;;;;;;10.85;5.50;;;;;;;5.95;87.72;98458.72;5064547;28;20035;-70
2023/12/25 06:31:46;;;;;;;13.05;5.75;;;;;;;6.02;87.22;98464.28;5093919;28;20031;-71
2023/12/25 06:34:14;;;;;;;13.02;5.40;;;;;;;5.96;86.97;98463.00;5089196;28;20148;-70
2023/12/25 06:36:39;;;;;;;10.52;5.38;;;;;;;5.80;88.11;98463.31;5072515;28;20036;-71
2023/12/25 06:39:10;;;;;;;12.13;5.45;;;;;;;5.85;88.04;98460.41;5072065;28;20782;-70
2023/12/25 06:41:40;;;;;;;9.93;5.10;;;;;;;5.93;87.78;98458.88;5077471;28;20079;-70
2023/12/25 06:44:06;;;;;;;11.10;5.45;;;;;;;6.05;87.55;98464.03;5087071;28;20829;-71
2023/12/25 06:46:31;;;;;;;9.85;5.65;;;;;;;5.96;87.39;98468.16;5082959;28;20047;-69
2023/12/25 06:48:56;;;;;;;12.10;5.40;;;;;;;5.61;86.98;98417.50;5072855;28;20767;-70
2023/12/25 06:51:24;;;;;;;11.20;5.35;;;;;;;6.02;87.20;98470.25;5067063;28;20032;-70
2023/12/25 06:53:50;;;;;;;10.10;5.47;;;;;;;5.91;87.48;98463.34;5081181;28;20023;-71
2023/12/25 06:56:18;;;;;;;13.98;5.53;;;;;;;5.80;88.24;98467.66;5083044;28;22003;-71
2023/12/25 06:58:43;;;;;;;12.32;5.45;;;;;;;5.89;88.00;98478.09;5091691;28;20474;-70
2023/12/25 07:01:11;;;;;;;11.98;5.82;;;;;;;5.80;87.75;98478.00;5068593;28;20027;-71
2023/12/25 07:03:36;;;;;;;9.40;5.13;;;;;;;5.52;90.06;98462.03;5082317;27;20061;-71
2023/12/25 07:06:01;;;;;;;12.60;5.70;;;;;;;5.53;89.36;98467.09;5085978;28;20039;-69
2023/12/25 07:08:29;;;;;;;14.60;5.95;;;;;;;5.61;90.10;98481.97;5076544;28;20027;-69
2023/12/25 07:10:55;;;;;;;12.80;5.55;;;;;;;5.77;89.30;98477.28;5091153;28;20126;-70
2023/12/25 07:13:20;;;;;;;12.65;5.72;;;;;;;5.90;89.04;98482.31;5070369;28;20023;-70
2023/12/25 07:15:45;;;;;;;14.27;5.22;;;;;;;6.02;87.93;98474.59;5070380;28;20031;-70
2023/12/25 07:18:13;;;;;;;12.10;5.88;;;;;;;6.07;88.13;98480.22;5085728;28;20813;-71
2023/12/25 07:20:38;;;;;;;11.73;5.50;;;;;;;5.60;89.03;98472.56;5072090;28;20027;-70
2023/12/25 07:23:10;;;;;;;11.63;5.75;;;;;;;5.78;89.03;98486.66;5068735;28;20051;-71
2023/12/25 07:25:37;;;;;;;10.57;5.70;;;;;;;5.82;88.88;98483.84;5087369;28;20024;-70
2023/12/25 07:28:03;;;;;;;14.10;5.72;;;;;;;5.87;88.39;98482.56;5076232;28;20036;-71
2023/12/25 07:30:28;;;;;;;15.00;5.72;;;;;;;5.98;87.75;98492.09;5069512;28;20054;-70
2023/12/25 07:32:56;;;;;;;12.38;5.32;;;;;;;5.97;87.30;98487.88;5089561;28;20039;-71
2023/12/25 07:35:26;;;;;;;10.70;5.80;;;;;;;5.75;87.15;98448.22;5082989;28;20142;-70
2023/12/25 07:37:52;;;;;;;13.15;5.90;;;;;;;6.01;87.36;98497.03;5087140;28;20028;-69
2023/12/25 07:40:18;;;;;;;13.98;6.45;;;;;;;5.83;87.87;98490.66;5092959;28;20038;-71
2023/12/25 07:42:43;;;;;;;10.52;5.60;;;;;;;6.00;87.49;98502.28;5079666;28;20096;-70
2023/12/25 07:45:14;;;;;;;10.05;5.93;;;;;;;6.00;87.78;98507.47;5086660;28;20086;-72
2023/12/25 07:47:39;;;;;;;13.57;5.88;;;;;;;5.92;88.60;98510.59;5056221;28;20024;-72
2023/12/25 07:50:05;;;;;;;11.30;5.40;;;;;;;6.03;88.07;98509.81;5074920;28;20046;-71
2023/12/25 07:52:31;;;;;;;14.10;5.97;;;;;;;5.93;88.17;98502.75;5079359;28;20047;-71
2023/12/25 07:54:57;;;;;;;11.55;6.10;;;;;;;6.09;88.02;98524.81;5070109;28;20066;-70
2023/12/25 07:57:25;;;;;;;11.15;5.90;;;;;;;6.14;88.32;98526.09;5069068;28;20036;-70
2023/12/25 07:59:53;;;;;;;12.07;6.05;;;;;;;5.89;87.45;98495.34;5068392;28;20093;-69
2023/12/25 08:02:18;;;;;;;10.73;6.18;;;;;;;6.02;87.82;98521.06;5065641;28;20036;-69
2023/12/25 08:04:46;;;;;;;14.73;6.03;;;;;;;6.22;86.80;98517.75;5088521;28;20041;-71
2023/12/25 08:07:11;;;;;;;12.18;5.60;;;;;;;6.32;86.69;98531.59;5090504;28;20046;-69
2023/12/25 08:09:37;;;;;;;12.30;5.65;;;;;;;6.33;86.89;98538.41;5076307;28;20035;-69
2023/12/25 08:12:03;;;;;;;11.23;6.00;;;;;;;6.20;87.30;98545.47;5073171;28;20032;-70
2023/12/25 08:14:30;;;;;;;13.27;6.20;;;;;;;5.96;88.73;98504.28;5065582;28;20031;-70
2023/12/25 08:16:56;;;;;;;12.93;6.72;;;;;;;6.29;88.71;98533.59;5095179;28;20024;-70
2023/12/25 08:19:21;;;;;;;15.27;6.97;;;;;;;6.13;88.71;98527.06;5089577;28;20063;-70
2023/12/25 08:21:49;;;;;;;15.40;6.72;;;;;;;6.01;88.45;98481.53;5087259;28;20552;-70
2023/12/25 08:24:14;;;;;;;11.20;6.35;;;;;;;6.30;88.91;98530.09;5062848;28;20047;-70
2023/12/25 08:26:40;;;;;;;11.55;6.40;;;;;;;6.15;88.58;98481.28;5068600;28;20032;-69
2023/12/25 08:29:05;;;;;;;12.27;6.63;;;;;;;6.52;87.96;98535.22;5071032;28;20080;-67
2023/12/25 08:31:31;;;;;;;12.65;7.63;;;;;;;6.57;87.91;98534.84;5085105;28;20035;-70
2023/12/25 08:33:59;;;;;;;13.27;7.32;;;;;;;6.58;88.38;98525.34;5083333;28;20027;-69
2023/12/25 08:36:24;;;;;;;13.48;7.03;;;;;;;6.65;88.02;98534.25;5080824;27;20035;-69
2023/12/25 08:38:50;;;;;;;16.58;7.40;;;;;;;6.71;87.72;98555.22;5081014;28;20028;-69
2023/12/25 08:41:15;;;;;;;12.57;6.90;;;;;;;6.68;88.08;98547.75;5088805;28;20201;-69
2023/12/25 08:43:42;;;;;;;12.65;6.38;;;;;;;6.70;87.55;98545.84;5082295;28;20666;-70
2023/12/25 08:46:10;;;;;;;13.13;6.60;;;;;;;6.54;87.53;98502.31;5067950;28;20582;-69
2023/12/25 08:48:35;;;;;;;14.18;7.25;;;;;;;6.89;88.07;98554.72;5083186;28;20024;-70
2023/12/25 08:51:03;;;;;;;13.63;6.78;;;;;;;6.88;87.91;98545.31;5084518;28;20116;-71
2023/12/25 08:53:28;;;;;;;11.35;6.75;;;;;;;6.87;88.06;98552.25;5063479;28;20024;-71
2023/12/25 08:55:54;;;;;;;15.35;7.30;;;;;;;7.00;88.48;98548.69;5069313;28;20104;-71
2023/12/25 08:58:24;;;;;;;15.30;7.45;;;;;;;6.99;88.27;98547.88;5083079;28;20019;-70
2023/12/25 09:00:50;;;;;;;13.45;7.75;;;;;;;7.09;88.68;98555.72;5085318;28;20118;-67
2023/12/25 09:03:15;;;;;;;15.30;9.93;;;;;;;6.82;89.22;98520.78;5090883;28;20031;-70
2023/12/25 09:05:41;;;;;;;17.40;10.18;;;;;;;7.06;90.45;98554.19;5068380;28;20555;-69
2023/12/25 09:08:09;;;;;;;17.65;10.55;;;;;;;7.01;92.11;98564.09;5073300;28;20387;-70
2023/12/25 09:10:35;;;;;;;16.60;9.10;;;;;;;7.07;94.35;98568.75;5085004;28;20502;-70
2023/12/25 09:13:00;;;;;;;14.32;8.45;;;;;;;7.06;95.82;98556.78;5069880;28;20064;-70
2023/12/25 09:15:28;;;;;;;14.00;8.57;;;;;;;7.23;97.01;98564.94;5090157;28;21610;-72
2023/12/25 09:17:54;;;;;;;17.00;9.00;;;;;;;7.33;96.96;98571.00;5079556;28;20105;-69
2023/12/25 09:20:19;;;;;;;14.65;8.93;;;;;;;7.19;97.27;98525.59;5086481;28;20540;-69
2023/12/25 09:22:47;;;;;;;17.98;9.02;;;;;;;7.61;96.74;98582.50;5063095;28;20051;-68
2023/12/25 09:25:15;;;;;;;12.52;7.82;;;;;;;7.68;96.56;98582.81;5070894;28;20039;-71
2023/12/25 09:27:40;;;;;;;16.30;8.60;;;;;;;7.76;96.07;98579.56;5078296;28;20039;-69
2023/12/25 09:30:08;;;;;;;15.93;8.98;;;;;;;7.48;95.97;98554.22;5056646;28;20106;-69
2023/12/25 09:32:33;;;;;;;15.88;9.27;;;;;;;7.43;96.94;98561.56;5061697;28;20023;-70
2023/12/25 09:34:59;;;;;;;17.25;9.07;;;;;;;7.54;97.73;98586.53;5063635;28;20031;-71
2023/12/25 09:37:27;;;;;;;18.70;9.85;;;;;;;7.64;97.50;98600.34;5084929;28;20770;-72
2023/12/25 09:39:54;;;;;;;19.42;11.20;;;;;;;7.65;97.63;98588.25;5067631;28;20491;-71
2023/12/25 09:42:21;;;;;;;15.45;9.00;;;;;;;7.63;99.69;98587.53;5107774;28;20078;-70
2023/12/25 09:44:50;;;;;;;16.38;9.25;;;;;;;7.67;99.59;98599.28;5081248;28;20031;-72
2023/12/25 09:47:15;;;;;;;17.00;10.00;;;;;;;7.46;100.00;98596.69;5085714;28;20589;-72
2023/12/25 09:49:42;;;;;;;18.83;9.73;;;;;;;7.54;100.00;98596.06;5078794;28;20035;-72
2023/12/25 09:52:09;;;;;;;16.85;9.43;;;;;;;7.60;100.00;98600.75;5076932;28;20027;-70
2023/12/25 09:54:37;;;;;;;15.07;9.77;;;;;;;7.31;100.00;98547.03;5088456;28;20036;-70
2023/12/25 09:57:10;;;;;;;17.48;9.38;;;;;;;7.80;99.41;98596.50;5083034;28;20032;-70
2023/12/25 09:59:35;;;;;;;15.07;9.20;;;;;;;7.76;98.62;98584.75;5084167;28;20031;-70
2023/12/25 10:02:05;;;;;;;20.33;9.60;;;;;;;7.88;98.07;98592.34;5078827;28;20514;-71
2023/12/25 10:04:30;;;;;;;15.73;9.27;;;;;;;7.98;97.46;98594.16;5074861;27;20055;-70
2023/12/25 10:06:57;;;;;;;18.05;9.30;;;;;;;8.03;96.35;98579.88;5074549;28;20053;-72
2023/12/25 10:09:25;;;;;;;18.08;8.90;;;;;;;7.84;95.66;98541.75;5087241;28;20032;-72
2023/12/25 10:11:50;;;;;;;16.27;8.70;;;;;;;8.01;93.98;98539.50;5092127;28;20163;-70
2023/12/25 10:14:16;;;;;;;13.32;9.13;;;;;;;7.98;93.55;98534.59;5066711;28;20027;-71
2023/12/25 10:16:41;;;;;;;17.70;9.32;;;;;;;8.06;92.87;98521.81;5067552;28;20290;-70
2023/12/25 10:19:11;;;;;;;14.45;8.77;;;;;;;8.53;92.46;98573.94;5079760;28;20019;-69
2023/12/25 10:21:46;;;;;;;15.90;8.52;;;;;;;8.45;91.12;98537.50;5091947;28;20038;-72
2023/12/25 10:24:15;;;;;;;14.30;8.82;;;;;;;8.70;89.55;98548.31;5069264;28;20036;-71
2023/12/25 10:26:46;;;;;;;14.15;8.63;;;;;;;8.91;89.60;98564.59;5087184;28;20031;-71
2023/12/25 10:29:13;;;;;;;12.43;7.95;;;;;;;8.73;88.27;98529.94;5068485;28;20127;-72
2023/12/25 10:31:47;;;;;;;13.93;8.85;;;;;;;8.94;88.71;98566.09;5071254;28;20485;-71
2023/12/25 10:34:18;;;;;;;16.98;10.02;;;;;;;8.98;90.04;98563.09;5087084;28;20038;-71
2023/12/25 10:36:43;;;;;;;15.10;9.30;;;;;;;9.11;90.23;98565.44;5085929;27;20043;-72
2023/12/25 10:39:10;;;;;;;15.55;9.68;;;;;;;9.07;89.32;98555.44;5087769;28;21539;-73
2023/12/25 10:41:36;;;;;;;12.98;8.82;;;;;;;9.02;88.29;98553.28;5088951;28;20035;-73
2023/12/25 10:44:04;;;;;;;14.05;9.13;;;;;;;9.10;88.48;98550.00;5082450;28;20171;-72
2023/12/25 10:46:37;;;;;;;15.32;9.65;;;;;;;9.06;87.55;98548.66;5090583;28;20169;-73
2023/12/25 10:49:04;;;;;;;16.42;9.60;;;;;;;9.07;90.57;98552.84;5087855;28;20031;-73
2023/12/25 10:51:32;;;;;;;16.15;10.05;;;;;;;8.89;94.14;98553.56;5096852;28;20737;-71
2023/12/25 10:54:04;;;;;;;17.08;10.07;;;;;;;9.07;95.18;98551.06;5094836;27;20077;-71
2023/12/25 10:56:35;;;;;;;15.88;10.38;;;;;;;8.73;96.14;98497.03;5068480;28;20680;-72
2023/12/25 10:59:16;;;;;;;14.80;9.75;;;;;;;8.92;95.32;98501.41;5065248;28;20115;-67
2023/12/25 11:01:50;;;;;;;17.17;10.00;;;;;;;9.22;95.01;98549.72;5067305;28;20533;-69
2023/12/25 11:04:17;;;;;;;15.85;10.20;;;;;;;8.88;95.01;98497.44;5066682;28;20118;-73
2023/12/25 11:06:44;;;;;;;14.40;9.80;;;;;;;9.33;93.54;98542.75;5064513;28;20467;-72
2023/12/25 11:09:13;;;;;;;14.48;9.93;;;;;;;9.48;92.92;98541.34;5084005;28;20054;-67
2023/12/25 11:11:42;;;;;;;18.35;10.45;;;;;;;9.53;91.35;98551.34;5063264;28;20027;-73
2023/12/25 11:14:07;;;;;;;15.77;9.80;;;;;;;9.33;89.96;98489.09;5078832;27;20034;-69
2023/12/25 11:16:34;;;;;;;15.23;9.38;;;;;;;9.63;90.28;98526.97;5086871;28;20028;-69
2023/12/25 11:19:00;;;;;;;16.23;9.57;;;;;;;9.73;90.76;98523.53;5068601;28;20439;-68
2023/12/25 11:21:29;;;;;;;14.18;8.70;;;;;;;9.59;89.92;98496.25;5066070;28;20585;-71
2023/12/25 11:23:58;;;;;;;14.45;8.85;;;;;;;9.73;91.30;98516.56;5084419;28;20054;-71
2023/12/25 11:26:29;;;;;;;16.10;9.23;;;;;;;9.85;92.32;98519.81;5067721;28;20028;-72
2023/12/25 11:28:58;;;;;;;13.77;9.02;;;;;;;9.89;91.73;98507.34;5081207;28;20494;-69
2023/12/25 11:31:27;;;;;;;13.07;8.95;;;;;;;9.79;91.86;98494.41;5080712;28;20036;-71